sensor_id;sensor_type;location;lat;lon;timestamp;temperature;humidity
27900;DHT22;15243;50.726;7.080;2023-05-10T00:00:42;12.90;99.90
27900;DHT22;15243;50.726;7.080;2023-05-10T00:03:08;12.80;99.90
27900;DHT22;15243;50.726;7.080;2023-05-10T00:05:35;12.80;99.90
27900;DHT22;15243;50.726;7.080;2023-05-10T00:08:02;12.90;99.90
27900;DHT22;15243;50.726;7.080;2023-05-10T00:10:30;12.90;99.90
27900;DHT22;15243;50.726;7.080;2023-05-10T00:12:57;12.80;99.90
27900;DHT22;15243;50.726;7.080;2023-05-10T00:15:24;12.80;99.90
27900;DHT22;15243;50.726;7.080;2023-05-10T00:17:51;12.80;99.90
27900;DHT22;15243;50.726;7.080;2023-05-10T00:20:18;12.80;99.90
27900;DHT22;15243;50.726;7.080;2023-05-10T00:22:45;12.80;99.90
27900;DHT22;15243;50.726;7.080;2023-05-10T00:25:12;12.80;99.90
27900;DHT22;15243;50.726;7.080;2023-05-10T00:27:39;12.90;99.90
27900;DHT22;15243;50.726;7.080;2023-05-10T00:30:06;12.90;99.90
27900;DHT22;15243;50.726;7.080;2023-05-10T00:32:34;13.00;99.90
27900;DHT22;15243;50.726;7.080;2023-05-10T00:35:01;13.00;99.90
27900;DHT22;15243;50.726;7.080;2023-05-10T00:37:28;12.90;99.90
27900;DHT22;15243;50.726;7.080;2023-05-10T00:39:55;12.90;99.90
27900;DHT22;15243;50.726;7.080;2023-05-10T00:42:22;13.00;99.90
27900;DHT22;15243;50.726;7.080;2023-05-10T00:44:49;12.90;99.90
27900;DHT22;15243;50.726;7.080;2023-05-10T00:47:16;12.80;99.90
27900;DHT22;15243;50.726;7.080;2023-05-10T00:49:44;12.90;99.90
27900;DHT22;15243;50.726;7.080;2023-05-10T00:52:12;12.90;99.90
27900;DHT22;15243;50.726;7.080;2023-05-10T00:54:39;12.90;99.90
27900;DHT22;15243;50.726;7.080;2023-05-10T00:57:06;12.90;99.90
27900;DHT22;15243;50.726;7.080;2023-05-10T00:59:33;12.90;99.90
27900;DHT22;15243;50.726;7.080;2023-05-10T01:02:01;12.90;99.90
27900;DHT22;15243;50.726;7.080;2023-05-10T01:04:28;12.80;99.90
27900;DHT22;15243;50.726;7.080;2023-05-10T01:06:55;12.80;99.90
27900;DHT22;15243;50.726;7.080;2023-05-10T01:09:26;12.80;99.90
27900;DHT22;15243;50.726;7.080;2023-05-10T01:11:53;12.80;99.90
27900;DHT22;15243;50.726;7.080;2023-05-10T01:14:21;13.00;99.90
27900;DHT22;15243;50.726;7.080;2023-05-10T01:16:49;12.90;99.90
27900;DHT22;15243;50.726;7.080;2023-05-10T01:19:24;13.00;99.90
27900;DHT22;15243;50.726;7.080;2023-05-10T01:35:55;12.70;99.90
27900;DHT22;15243;50.726;7.080;2023-05-10T01:38:50;12.70;99.90
27900;DHT22;15243;50.726;7.080;2023-05-10T01:46:28;12.80;99.90
27900;DHT22;15243;50.726;7.080;2023-05-10T01:49:00;12.70;99.90
27900;DHT22;15243;50.726;7.080;2023-05-10T01:51:33;12.60;99.90
27900;DHT22;15243;50.726;7.080;2023-05-10T01:54:04;12.60;99.90
27900;DHT22;15243;50.726;7.080;2023-05-10T01:56:33;12.60;99.90
27900;DHT22;15243;50.726;7.080;2023-05-10T01:59:05;12.60;99.90
27900;DHT22;15243;50.726;7.080;2023-05-10T02:01:33;12.60;99.90
27900;DHT22;15243;50.726;7.080;2023-05-10T02:04:03;12.70;99.90
27900;DHT22;15243;50.726;7.080;2023-05-10T02:06:32;12.70;99.90
27900;DHT22;15243;50.726;7.080;2023-05-10T02:09:01;12.70;99.90
27900;DHT22;15243;50.726;7.080;2023-05-10T02:11:29;12.60;99.90
27900;DHT22;15243;50.726;7.080;2023-05-10T02:13:58;12.70;99.90
27900;DHT22;15243;50.726;7.080;2023-05-10T02:16:26;12.60;99.90
27900;DHT22;15243;50.726;7.080;2023-05-10T02:18:54;12.60;99.90
27900;DHT22;15243;50.726;7.080;2023-05-10T02:21:22;12.60;99.90
27900;DHT22;15243;50.726;7.080;2023-05-10T02:23:52;12.60;99.90
27900;DHT22;15243;50.726;7.080;2023-05-10T02:26:21;12.70;99.90
27900;DHT22;15243;50.726;7.080;2023-05-10T02:28:50;12.60;99.90
27900;DHT22;15243;50.726;7.080;2023-05-10T02:31:18;12.60;99.90
27900;DHT22;15243;50.726;7.080;2023-05-10T02:33:46;12.50;99.90
27900;DHT22;15243;50.726;7.080;2023-05-10T02:36:14;12.50;99.90
27900;DHT22;15243;50.726;7.080;2023-05-10T02:38:42;12.50;99.90
27900;DHT22;15243;50.726;7.080;2023-05-10T02:41:10;12.50;99.90
27900;DHT22;15243;50.726;7.080;2023-05-10T02:43:38;12.50;99.90
27900;DHT22;15243;50.726;7.080;2023-05-10T02:46:06;12.60;99.90
27900;DHT22;15243;50.726;7.080;2023-05-10T02:48:34;12.50;99.90
27900;DHT22;15243;50.726;7.080;2023-05-10T02:51:05;12.50;99.90
27900;DHT22;15243;50.726;7.080;2023-05-10T02:53:35;12.60;99.90
27900;DHT22;15243;50.726;7.080;2023-05-10T02:56:09;12.60;99.90
27900;DHT22;15243;50.726;7.080;2023-05-10T02:58:38;12.60;99.90
27900;DHT22;15243;50.726;7.080;2023-05-10T03:01:05;12.50;99.90
27900;DHT22;15243;50.726;7.080;2023-05-10T03:03:34;12.50;99.90
27900;DHT22;15243;50.726;7.080;2023-05-10T03:06:01;12.50;99.90
27900;DHT22;15243;50.726;7.080;2023-05-10T03:08:28;12.50;99.90
27900;DHT22;15243;50.726;7.080;2023-05-10T03:16:30;12.60;99.90
27900;DHT22;15243;50.726;7.080;2023-05-10T03:21:31;12.70;99.90
27900;DHT22;15243;50.726;7.080;2023-05-10T03:24:07;12.60;99.90
27900;DHT22;15243;50.726;7.080;2023-05-10T03:26:35;12.70;99.90
27900;DHT22;15243;50.726;7.080;2023-05-10T03:29:05;12.80;99.90
27900;DHT22;15243;50.726;7.080;2023-05-10T03:31:33;12.70;99.90
27900;DHT22;15243;50.726;7.080;2023-05-10T03:34:00;12.60;99.90
27900;DHT22;15243;50.726;7.080;2023-05-10T03:36:26;12.70;99.90
27900;DHT22;15243;50.726;7.080;2023-05-10T03:38:53;12.70;99.90
27900;DHT22;15243;50.726;7.080;2023-05-10T03:41:20;12.90;99.90
27900;DHT22;15243;50.726;7.080;2023-05-10T03:43:47;12.80;99.90
27900;DHT22;15243;50.726;7.080;2023-05-10T03:46:15;12.70;99.90
27900;DHT22;15243;50.726;7.080;2023-05-10T03:48:42;12.60;99.90
27900;DHT22;15243;50.726;7.080;2023-05-10T03:51:09;12.70;99.90
27900;DHT22;15243;50.726;7.080;2023-05-10T03:53:35;12.70;99.90
27900;DHT22;15243;50.726;7.080;2023-05-10T03:56:04;12.80;99.90
27900;DHT22;15243;50.726;7.080;2023-05-10T03:58:31;12.90;99.90
27900;DHT22;15243;50.726;7.080;2023-05-10T04:00:57;12.80;99.90
27900;DHT22;15243;50.726;7.080;2023-05-10T04:03:25;12.80;99.90
27900;DHT22;15243;50.726;7.080;2023-05-10T04:06:00;12.80;99.90
27900;DHT22;15243;50.726;7.080;2023-05-10T04:08:28;12.80;99.90
27900;DHT22;15243;50.726;7.080;2023-05-10T04:11:08;12.90;99.90
27900;DHT22;15243;50.726;7.080;2023-05-10T04:13:35;12.90;99.90
27900;DHT22;15243;50.726;7.080;2023-05-10T04:16:02;13.00;99.90
27900;DHT22;15243;50.726;7.080;2023-05-10T04:18:30;12.90;99.90
27900;DHT22;15243;50.726;7.080;2023-05-10T04:20:57;12.90;99.90
27900;DHT22;15243;50.726;7.080;2023-05-10T04:23:24;12.90;99.90
27900;DHT22;15243;50.726;7.080;2023-05-10T04:25:51;13.00;99.90
27900;DHT22;15243;50.726;7.080;2023-05-10T04:28:18;12.90;99.90
27900;DHT22;15243;50.726;7.080;2023-05-10T04:30:45;12.90;99.90
27900;DHT22;15243;50.726;7.080;2023-05-10T04:33:12;12.80;99.90
27900;DHT22;15243;50.726;7.080;2023-05-10T04:35:39;12.90;99.90
27900;DHT22;15243;50.726;7.080;2023-05-10T04:38:06;12.90;99.90
27900;DHT22;15243;50.726;7.080;2023-05-10T04:40:33;12.80;99.90
27900;DHT22;15243;50.726;7.080;2023-05-10T04:43:01;12.90;99.90
27900;DHT22;15243;50.726;7.080;2023-05-10T04:45:28;13.00;99.90
27900;DHT22;15243;50.726;7.080;2023-05-10T04:47:54;13.00;99.90
27900;DHT22;15243;50.726;7.080;2023-05-10T04:50:21;13.10;99.90
27900;DHT22;15243;50.726;7.080;2023-05-10T04:52:48;13.10;99.90
27900;DHT22;15243;50.726;7.080;2023-05-10T04:55:16;13.20;99.90
27900;DHT22;15243;50.726;7.080;2023-05-10T04:57:43;13.20;99.90
27900;DHT22;15243;50.726;7.080;2023-05-10T05:00:10;13.20;99.90
27900;DHT22;15243;50.726;7.080;2023-05-10T05:02:37;13.10;99.90
27900;DHT22;15243;50.726;7.080;2023-05-10T05:05:04;13.10;99.90
27900;DHT22;15243;50.726;7.080;2023-05-10T05:07:31;13.10;99.90
27900;DHT22;15243;50.726;7.080;2023-05-10T05:09:59;13.00;99.90
27900;DHT22;15243;50.726;7.080;2023-05-10T05:12:26;13.20;99.90
27900;DHT22;15243;50.726;7.080;2023-05-10T05:14:53;13.20;99.90
27900;DHT22;15243;50.726;7.080;2023-05-10T05:17:19;13.20;99.90
27900;DHT22;15243;50.726;7.080;2023-05-10T05:19:46;13.10;99.90
27900;DHT22;15243;50.726;7.080;2023-05-10T05:22:13;13.10;99.90
27900;DHT22;15243;50.726;7.080;2023-05-10T05:24:40;13.10;99.90
27900;DHT22;15243;50.726;7.080;2023-05-10T05:27:07;13.20;99.90
27900;DHT22;15243;50.726;7.080;2023-05-10T05:29:34;13.30;99.90
27900;DHT22;15243;50.726;7.080;2023-05-10T05:32:01;13.50;99.90
27900;DHT22;15243;50.726;7.080;2023-05-10T05:34:28;13.50;99.90
27900;DHT22;15243;50.726;7.080;2023-05-10T05:36:55;13.50;99.90
27900;DHT22;15243;50.726;7.080;2023-05-10T05:39:22;13.50;99.90
27900;DHT22;15243;50.726;7.080;2023-05-10T05:41:50;13.50;99.90
27900;DHT22;15243;50.726;7.080;2023-05-10T05:44:17;13.70;99.90
27900;DHT22;15243;50.726;7.080;2023-05-10T05:46:43;13.60;99.90
27900;DHT22;15243;50.726;7.080;2023-05-10T05:49:11;13.70;99.90
27900;DHT22;15243;50.726;7.080;2023-05-10T05:51:38;13.70;99.90
27900;DHT22;15243;50.726;7.080;2023-05-10T05:54:05;13.70;99.90
27900;DHT22;15243;50.726;7.080;2023-05-10T05:56:33;13.70;99.90
27900;DHT22;15243;50.726;7.080;2023-05-10T05:58:59;14.00;99.90
27900;DHT22;15243;50.726;7.080;2023-05-10T06:01:27;14.00;99.90
27900;DHT22;15243;50.726;7.080;2023-05-10T06:03:54;13.90;99.90
27900;DHT22;15243;50.726;7.080;2023-05-10T06:06:21;14.20;99.90
27900;DHT22;15243;50.726;7.080;2023-05-10T06:08:48;14.10;99.90
27900;DHT22;15243;50.726;7.080;2023-05-10T06:11:15;14.00;99.90
27900;DHT22;15243;50.726;7.080;2023-05-10T06:13:42;13.90;99.90
27900;DHT22;15243;50.726;7.080;2023-05-10T06:16:10;13.90;99.90
27900;DHT22;15243;50.726;7.080;2023-05-10T06:18:36;14.10;99.90
27900;DHT22;15243;50.726;7.080;2023-05-10T06:21:04;14.00;99.90
27900;DHT22;15243;50.726;7.080;2023-05-10T06:23:31;14.10;99.90
27900;DHT22;15243;50.726;7.080;2023-05-10T06:25:58;13.90;99.90
27900;DHT22;15243;50.726;7.080;2023-05-10T06:28:25;13.90;99.90
27900;DHT22;15243;50.726;7.080;2023-05-10T06:30:52;13.90;99.90
27900;DHT22;15243;50.726;7.080;2023-05-10T06:33:19;13.80;99.90
27900;DHT22;15243;50.726;7.080;2023-05-10T06:35:46;13.80;99.90
27900;DHT22;15243;50.726;7.080;2023-05-10T06:38:13;13.90;99.90
27900;DHT22;15243;50.726;7.080;2023-05-10T06:40:43;13.80;99.90
27900;DHT22;15243;50.726;7.080;2023-05-10T06:43:10;13.70;99.90
27900;DHT22;15243;50.726;7.080;2023-05-10T06:45:37;13.80;99.90
27900;DHT22;15243;50.726;7.080;2023-05-10T06:48:04;13.80;99.90
27900;DHT22;15243;50.726;7.080;2023-05-10T06:50:31;13.80;99.90
27900;DHT22;15243;50.726;7.080;2023-05-10T06:52:59;13.80;99.90
27900;DHT22;15243;50.726;7.080;2023-05-10T06:55:27;13.90;99.90
27900;DHT22;15243;50.726;7.080;2023-05-10T06:57:54;13.90;99.90
27900;DHT22;15243;50.726;7.080;2023-05-10T07:00:21;13.90;99.90
27900;DHT22;15243;50.726;7.080;2023-05-10T07:02:48;13.90;99.90
27900;DHT22;15243;50.726;7.080;2023-05-10T07:05:16;13.90;99.90
27900;DHT22;15243;50.726;7.080;2023-05-10T07:07:43;13.90;99.90
27900;DHT22;15243;50.726;7.080;2023-05-10T07:10:10;14.00;99.90
27900;DHT22;15243;50.726;7.080;2023-05-10T07:12:37;13.80;99.90
27900;DHT22;15243;50.726;7.080;2023-05-10T07:15:05;13.70;99.90
27900;DHT22;15243;50.726;7.080;2023-05-10T07:17:32;13.80;99.90
27900;DHT22;15243;50.726;7.080;2023-05-10T07:20:00;13.70;99.90
27900;DHT22;15243;50.726;7.080;2023-05-10T07:22:28;13.60;99.90
27900;DHT22;15243;50.726;7.080;2023-05-10T07:24:55;13.80;99.90
27900;DHT22;15243;50.726;7.080;2023-05-10T07:27:22;13.80;99.90
27900;DHT22;15243;50.726;7.080;2023-05-10T07:29:49;13.80;99.90
27900;DHT22;15243;50.726;7.080;2023-05-10T07:32:16;13.80;99.90
27900;DHT22;15243;50.726;7.080;2023-05-10T07:34:43;13.90;99.90
27900;DHT22;15243;50.726;7.080;2023-05-10T07:37:10;14.00;99.90
27900;DHT22;15243;50.726;7.080;2023-05-10T07:39:37;13.90;99.90
27900;DHT22;15243;50.726;7.080;2023-05-10T07:42:04;13.80;99.90
27900;DHT22;15243;50.726;7.080;2023-05-10T07:44:31;14.00;99.90
27900;DHT22;15243;50.726;7.080;2023-05-10T07:46:58;14.10;99.90
27900;DHT22;15243;50.726;7.080;2023-05-10T07:49:25;14.00;99.90
27900;DHT22;15243;50.726;7.080;2023-05-10T07:51:53;14.00;99.90
27900;DHT22;15243;50.726;7.080;2023-05-10T07:54:19;14.20;99.90
27900;DHT22;15243;50.726;7.080;2023-05-10T07:56:47;14.10;99.90
27900;DHT22;15243;50.726;7.080;2023-05-10T07:59:17;14.00;99.90
27900;DHT22;15243;50.726;7.080;2023-05-10T08:01:45;14.10;99.90
27900;DHT22;15243;50.726;7.080;2023-05-10T08:04:12;14.20;99.90
27900;DHT22;15243;50.726;7.080;2023-05-10T08:06:39;14.30;99.90
27900;DHT22;15243;50.726;7.080;2023-05-10T08:09:07;14.40;99.90
27900;DHT22;15243;50.726;7.080;2023-05-10T08:11:34;14.20;99.90
27900;DHT22;15243;50.726;7.080;2023-05-10T08:14:01;14.40;99.90
27900;DHT22;15243;50.726;7.080;2023-05-10T08:16:28;14.50;99.90
27900;DHT22;15243;50.726;7.080;2023-05-10T08:18:55;14.60;99.90
27900;DHT22;15243;50.726;7.080;2023-05-10T08:21:23;14.70;99.90
27900;DHT22;15243;50.726;7.080;2023-05-10T08:23:50;14.70;99.90
27900;DHT22;15243;50.726;7.080;2023-05-10T08:26:18;14.90;99.90
27900;DHT22;15243;50.726;7.080;2023-05-10T08:28:45;15.10;99.90
27900;DHT22;15243;50.726;7.080;2023-05-10T08:31:12;15.30;99.90
27900;DHT22;15243;50.726;7.080;2023-05-10T08:33:39;15.40;99.90
27900;DHT22;15243;50.726;7.080;2023-05-10T08:36:09;15.40;99.90
27900;DHT22;15243;50.726;7.080;2023-05-10T08:38:37;15.40;99.90
27900;DHT22;15243;50.726;7.080;2023-05-10T08:41:05;15.10;99.90
27900;DHT22;15243;50.726;7.080;2023-05-10T08:43:35;15.10;99.90
27900;DHT22;15243;50.726;7.080;2023-05-10T08:46:05;15.10;99.90
27900;DHT22;15243;50.726;7.080;2023-05-10T08:48:34;15.20;99.90
27900;DHT22;15243;50.726;7.080;2023-05-10T08:51:02;15.00;99.90
27900;DHT22;15243;50.726;7.080;2023-05-10T08:53:32;14.90;99.90
27900;DHT22;15243;50.726;7.080;2023-05-10T08:56:02;14.80;99.90
27900;DHT22;15243;50.726;7.080;2023-05-10T08:58:30;15.00;99.90
27900;DHT22;15243;50.726;7.080;2023-05-10T09:00:57;14.70;99.90
27900;DHT22;15243;50.726;7.080;2023-05-10T09:03:25;14.70;99.90
27900;DHT22;15243;50.726;7.080;2023-05-10T09:05:53;14.80;99.90
27900;DHT22;15243;50.726;7.080;2023-05-10T09:08:20;14.30;99.90
27900;DHT22;15243;50.726;7.080;2023-05-10T09:10:49;14.20;99.90
27900;DHT22;15243;50.726;7.080;2023-05-10T09:13:17;14.30;99.90
27900;DHT22;15243;50.726;7.080;2023-05-10T09:15:45;14.20;99.90
27900;DHT22;15243;50.726;7.080;2023-05-10T09:18:12;14.00;99.90
27900;DHT22;15243;50.726;7.080;2023-05-10T09:20:40;14.20;99.90
27900;DHT22;15243;50.726;7.080;2023-05-10T09:23:07;14.20;99.90
27900;DHT22;15243;50.726;7.080;2023-05-10T09:25:34;14.30;99.90
27900;DHT22;15243;50.726;7.080;2023-05-10T09:28:01;14.30;99.90
27900;DHT22;15243;50.726;7.080;2023-05-10T09:30:30;14.10;99.90
27900;DHT22;15243;50.726;7.080;2023-05-10T09:32:59;14.30;99.90
27900;DHT22;15243;50.726;7.080;2023-05-10T09:35:29;14.40;99.90
27900;DHT22;15243;50.726;7.080;2023-05-10T09:37:59;14.50;99.90
27900;DHT22;15243;50.726;7.080;2023-05-10T09:40:28;14.80;99.90
27900;DHT22;15243;50.726;7.080;2023-05-10T09:43:08;14.60;99.90
27900;DHT22;15243;50.726;7.080;2023-05-10T09:45:36;14.90;99.90
27900;DHT22;15243;50.726;7.080;2023-05-10T09:48:05;15.10;99.90
27900;DHT22;15243;50.726;7.080;2023-05-10T09:50:33;15.00;99.90
27900;DHT22;15243;50.726;7.080;2023-05-10T09:53:02;15.20;99.90
27900;DHT22;15243;50.726;7.080;2023-05-10T09:55:40;15.20;99.90
27900;DHT22;15243;50.726;7.080;2023-05-10T09:58:07;15.10;99.90
27900;DHT22;15243;50.726;7.080;2023-05-10T10:00:39;15.30;99.90
27900;DHT22;15243;50.726;7.080;2023-05-10T10:03:15;15.40;99.90
27900;DHT22;15243;50.726;7.080;2023-05-10T10:05:43;15.40;99.90
27900;DHT22;15243;50.726;7.080;2023-05-10T10:08:11;15.70;99.90
27900;DHT22;15243;50.726;7.080;2023-05-10T10:10:39;15.70;99.90
27900;DHT22;15243;50.726;7.080;2023-05-10T10:13:19;15.90;99.90
27900;DHT22;15243;50.726;7.080;2023-05-10T10:15:46;15.70;99.90
27900;DHT22;15243;50.726;7.080;2023-05-10T10:18:17;15.80;99.90
27900;DHT22;15243;50.726;7.080;2023-05-10T10:20:46;16.10;99.90
27900;DHT22;15243;50.726;7.080;2023-05-10T10:23:12;15.90;99.90
27900;DHT22;15243;50.726;7.080;2023-05-10T10:25:43;15.80;99.90
27900;DHT22;15243;50.726;7.080;2023-05-10T10:28:38;15.60;99.90
27900;DHT22;15243;50.726;7.080;2023-05-10T10:31:23;15.70;99.90
27900;DHT22;15243;50.726;7.080;2023-05-10T10:36:53;14.90;99.90
27900;DHT22;15243;50.726;7.080;2023-05-10T10:39:21;15.00;99.90
27900;DHT22;15243;50.726;7.080;2023-05-10T10:41:55;15.00;99.90
27900;DHT22;15243;50.726;7.080;2023-05-10T10:47:20;16.00;99.90
27900;DHT22;15243;50.726;7.080;2023-05-10T10:52:28;16.10;99.90
27900;DHT22;15243;50.726;7.080;2023-05-10T11:03:04;16.10;99.90
27900;DHT22;15243;50.726;7.080;2023-05-10T11:13:31;16.60;99.90
27900;DHT22;15243;50.726;7.080;2023-05-10T11:21:30;16.60;99.90
27900;DHT22;15243;50.726;7.080;2023-05-10T11:23:58;16.50;99.90
27900;DHT22;15243;50.726;7.080;2023-05-10T11:26:31;16.50;99.90
27900;DHT22;15243;50.726;7.080;2023-05-10T11:28:58;16.80;99.90
27900;DHT22;15243;50.726;7.080;2023-05-10T11:31:28;17.10;99.90
27900;DHT22;15243;50.726;7.080;2023-05-10T11:33:58;17.40;99.90
27900;DHT22;15243;50.726;7.080;2023-05-10T11:36:27;17.40;99.90
27900;DHT22;15243;50.726;7.080;2023-05-10T11:38:55;18.10;94.00
27900;DHT22;15243;50.726;7.080;2023-05-10T11:41:23;18.00;99.90
27900;DHT22;15243;50.726;7.080;2023-05-10T11:43:52;18.20;60.60
27900;DHT22;15243;50.726;7.080;2023-05-10T11:46:21;18.00;93.60
27900;DHT22;15243;50.726;7.080;2023-05-10T11:48:50;18.20;99.90
27900;DHT22;15243;50.726;7.080;2023-05-10T11:51:21;17.90;99.90
27900;DHT22;15243;50.726;7.080;2023-05-10T11:53:50;17.40;99.90
27900;DHT22;15243;50.726;7.080;2023-05-10T11:56:17;17.80;98.90
27900;DHT22;15243;50.726;7.080;2023-05-10T11:58:44;17.90;85.00
27900;DHT22;15243;50.726;7.080;2023-05-10T12:01:13;17.60;86.40
27900;DHT22;15243;50.726;7.080;2023-05-10T12:03:40;17.50;94.10
27900;DHT22;15243;50.726;7.080;2023-05-10T12:06:08;17.60;62.80
27900;DHT22;15243;50.726;7.080;2023-05-10T12:08:35;17.40;99.90
27900;DHT22;15243;50.726;7.080;2023-05-10T12:11:09;17.30;99.90
27900;DHT22;15243;50.726;7.080;2023-05-10T12:13:40;16.40;99.90
27900;DHT22;15243;50.726;7.080;2023-05-10T12:16:33;16.60;99.90
27900;DHT22;15243;50.726;7.080;2023-05-10T12:19:00;16.30;99.90
27900;DHT22;15243;50.726;7.080;2023-05-10T12:21:30;16.70;99.90
27900;DHT22;15243;50.726;7.080;2023-05-10T12:24:04;16.60;99.90
27900;DHT22;15243;50.726;7.080;2023-05-10T12:26:35;16.80;99.90
27900;DHT22;15243;50.726;7.080;2023-05-10T12:29:18;16.70;90.90
27900;DHT22;15243;50.726;7.080;2023-05-10T12:31:53;16.90;91.40
27900;DHT22;15243;50.726;7.080;2023-05-10T12:34:30;17.10;99.90
27900;DHT22;15243;50.726;7.080;2023-05-10T12:36:58;17.10;90.10
27900;DHT22;15243;50.726;7.080;2023-05-10T12:39:25;16.60;99.90
27900;DHT22;15243;50.726;7.080;2023-05-10T12:41:52;16.70;99.90
27900;DHT22;15243;50.726;7.080;2023-05-10T12:44:19;16.70;99.90
27900;DHT22;15243;50.726;7.080;2023-05-10T12:46:46;16.50;99.90
27900;DHT22;15243;50.726;7.080;2023-05-10T12:49:13;16.50;99.90
27900;DHT22;15243;50.726;7.080;2023-05-10T12:51:40;16.10;99.90
27900;DHT22;15243;50.726;7.080;2023-05-10T12:54:06;16.00;99.90
27900;DHT22;15243;50.726;7.080;2023-05-10T12:56:33;15.90;99.90
27900;DHT22;15243;50.726;7.080;2023-05-10T12:59:00;16.00;99.90
27900;DHT22;15243;50.726;7.080;2023-05-10T13:01:28;16.40;99.90
27900;DHT22;15243;50.726;7.080;2023-05-10T13:03:54;16.60;99.90
27900;DHT22;15243;50.726;7.080;2023-05-10T13:06:21;16.60;99.90
27900;DHT22;15243;50.726;7.080;2023-05-10T13:08:49;16.50;99.90
27900;DHT22;15243;50.726;7.080;2023-05-10T13:11:15;16.90;99.90
27900;DHT22;15243;50.726;7.080;2023-05-10T13:13:43;17.00;99.90
27900;DHT22;15243;50.726;7.080;2023-05-10T13:16:11;17.40;99.90
27900;DHT22;15243;50.726;7.080;2023-05-10T13:18:38;17.50;99.90
27900;DHT22;15243;50.726;7.080;2023-05-10T13:21:05;17.80;99.90
27900;DHT22;15243;50.726;7.080;2023-05-10T13:23:32;17.80;94.10
27900;DHT22;15243;50.726;7.080;2023-05-10T13:25:59;17.40;99.90
27900;DHT22;15243;50.726;7.080;2023-05-10T13:28:25;18.00;99.90
27900;DHT22;15243;50.726;7.080;2023-05-10T13:30:53;18.20;20.50
27900;DHT22;15243;50.726;7.080;2023-05-10T13:33:20;17.50;34.10
27900;DHT22;15243;50.726;7.080;2023-05-10T13:35:47;17.50;10.40
27900;DHT22;15243;50.726;7.080;2023-05-10T13:38:14;17.30;13.40
27900;DHT22;15243;50.726;7.080;2023-05-10T13:40:41;17.30;30.00
27900;DHT22;15243;50.726;7.080;2023-05-10T13:43:08;17.40;31.70
27900;DHT22;15243;50.726;7.080;2023-05-10T13:45:34;17.30;49.70
27900;DHT22;15243;50.726;7.080;2023-05-10T13:48:02;17.00;87.40
27900;DHT22;15243;50.726;7.080;2023-05-10T13:50:29;16.80;86.70
27900;DHT22;15243;50.726;7.080;2023-05-10T13:52:56;16.50;99.90
27900;DHT22;15243;50.726;7.080;2023-05-10T13:55:23;16.60;99.80
27900;DHT22;15243;50.726;7.080;2023-05-10T13:57:50;16.50;99.90
27900;DHT22;15243;50.726;7.080;2023-05-10T14:00:17;16.50;99.90
27900;DHT22;15243;50.726;7.080;2023-05-10T14:02:44;16.50;99.90
27900;DHT22;15243;50.726;7.080;2023-05-10T14:05:11;16.30;99.90
27900;DHT22;15243;50.726;7.080;2023-05-10T14:07:39;16.30;99.90
27900;DHT22;15243;50.726;7.080;2023-05-10T14:10:07;16.20;99.90
27900;DHT22;15243;50.726;7.080;2023-05-10T14:12:34;16.10;99.90
27900;DHT22;15243;50.726;7.080;2023-05-10T14:15:01;16.10;99.90
27900;DHT22;15243;50.726;7.080;2023-05-10T14:17:29;16.00;99.90
27900;DHT22;15243;50.726;7.080;2023-05-10T14:19:55;16.00;99.90
27900;DHT22;15243;50.726;7.080;2023-05-10T14:22:22;16.00;99.90
27900;DHT22;15243;50.726;7.080;2023-05-10T14:24:50;16.10;99.90
27900;DHT22;15243;50.726;7.080;2023-05-10T14:27:16;16.10;99.90
27900;DHT22;15243;50.726;7.080;2023-05-10T14:29:43;16.00;99.90
27900;DHT22;15243;50.726;7.080;2023-05-10T14:32:10;16.10;99.90
27900;DHT22;15243;50.726;7.080;2023-05-10T14:34:38;16.10;99.90
27900;DHT22;15243;50.726;7.080;2023-05-10T14:37:05;16.10;99.90
27900;DHT22;15243;50.726;7.080;2023-05-10T14:39:32;16.00;99.90
27900;DHT22;15243;50.726;7.080;2023-05-10T14:41:59;15.90;99.90
27900;DHT22;15243;50.726;7.080;2023-05-10T14:44:26;15.90;99.90
27900;DHT22;15243;50.726;7.080;2023-05-10T14:46:53;15.70;99.90
27900;DHT22;15243;50.726;7.080;2023-05-10T14:49:20;16.10;99.90
27900;DHT22;15243;50.726;7.080;2023-05-10T14:51:49;16.30;99.90
27900;DHT22;15243;50.726;7.080;2023-05-10T14:54:16;16.60;99.90
27900;DHT22;15243;50.726;7.080;2023-05-10T14:56:46;16.70;99.90
27900;DHT22;15243;50.726;7.080;2023-05-10T14:59:13;16.90;99.90
27900;DHT22;15243;50.726;7.080;2023-05-10T15:01:41;16.80;99.90
27900;DHT22;15243;50.726;7.080;2023-05-10T15:04:09;17.00;99.90
27900;DHT22;15243;50.726;7.080;2023-05-10T15:06:36;17.10;99.90
27900;DHT22;15243;50.726;7.080;2023-05-10T15:09:03;16.50;99.90
27900;DHT22;15243;50.726;7.080;2023-05-10T15:11:30;16.50;99.90
27900;DHT22;15243;50.726;7.080;2023-05-10T15:13:57;16.30;99.90
27900;DHT22;15243;50.726;7.080;2023-05-10T15:16:24;16.10;99.90
27900;DHT22;15243;50.726;7.080;2023-05-10T15:18:51;15.90;99.90
27900;DHT22;15243;50.726;7.080;2023-05-10T15:21:18;15.80;99.90
27900;DHT22;15243;50.726;7.080;2023-05-10T15:23:45;15.70;99.90
27900;DHT22;15243;50.726;7.080;2023-05-10T15:26:12;15.50;99.90
27900;DHT22;15243;50.726;7.080;2023-05-10T15:28:39;15.40;99.90
27900;DHT22;15243;50.726;7.080;2023-05-10T15:31:06;15.40;99.90
27900;DHT22;15243;50.726;7.080;2023-05-10T15:33:33;15.00;99.90
27900;DHT22;15243;50.726;7.080;2023-05-10T15:36:00;14.90;99.90
27900;DHT22;15243;50.726;7.080;2023-05-10T15:38:27;14.90;99.90
27900;DHT22;15243;50.726;7.080;2023-05-10T15:40:56;14.80;99.90
27900;DHT22;15243;50.726;7.080;2023-05-10T15:43:24;14.80;99.90
27900;DHT22;15243;50.726;7.080;2023-05-10T15:45:51;14.90;99.90
27900;DHT22;15243;50.726;7.080;2023-05-10T15:48:18;14.90;99.90
27900;DHT22;15243;50.726;7.080;2023-05-10T15:50:45;15.00;99.90
27900;DHT22;15243;50.726;7.080;2023-05-10T15:53:11;15.00;99.90
27900;DHT22;15243;50.726;7.080;2023-05-10T15:55:38;15.20;99.90
27900;DHT22;15243;50.726;7.080;2023-05-10T15:58:05;15.10;99.90
27900;DHT22;15243;50.726;7.080;2023-05-10T16:00:32;15.20;99.90
27900;DHT22;15243;50.726;7.080;2023-05-10T16:02:59;15.40;99.90
27900;DHT22;15243;50.726;7.080;2023-05-10T16:05:26;15.70;99.90
27900;DHT22;15243;50.726;7.080;2023-05-10T16:07:57;16.10;99.90
27900;DHT22;15243;50.726;7.080;2023-05-10T16:10:24;16.30;99.90
27900;DHT22;15243;50.726;7.080;2023-05-10T16:12:52;16.10;99.90
27900;DHT22;15243;50.726;7.080;2023-05-10T16:15:19;15.60;99.90
27900;DHT22;15243;50.726;7.080;2023-05-10T16:17:49;15.60;99.90
27900;DHT22;15243;50.726;7.080;2023-05-10T16:20:17;15.40;99.90
27900;DHT22;15243;50.726;7.080;2023-05-10T16:22:44;15.50;99.90
27900;DHT22;15243;50.726;7.080;2023-05-10T16:25:10;15.30;99.90
27900;DHT22;15243;50.726;7.080;2023-05-10T16:27:39;15.10;99.90
27900;DHT22;15243;50.726;7.080;2023-05-10T16:30:07;15.50;99.90
27900;DHT22;15243;50.726;7.080;2023-05-10T16:32:34;15.40;99.90